Time;durP1;ratioP1;P1;durP2;ratioP2;P2;SDS_P1;SDS_P2;PMS_P1;PMS_P2;Temp;Humidity;BMP_temperature;BMP_pressure;BME280_temperature;BME280_humidity;BME280_pressure;Samples;Min_cycle;Max_cycle;Signal;HPM_P1;HPM_P2
2022/06/16 00:00:31;;;;;;;2.00;1.00;;;22.20;56.40;;;;;;4429925;32;20094;-67
2022/06/16 00:02:57;;;;;;;1.35;0.70;;;22.20;56.40;;;;;;4429932;32;20499;-67
2022/06/16 00:05:26;;;;;;;1.67;1.00;;;22.20;56.50;;;;;;4430187;32;20540;-67
2022/06/16 00:07:52;;;;;;;1.95;1.00;;;22.20;56.70;;;;;;4429576;32;20613;-67
2022/06/16 00:10:19;;;;;;;2.05;0.98;;;22.10;56.70;;;;;;4428862;32;20086;-67
2022/06/16 00:12:45;;;;;;;2.00;0.82;;;22.10;56.80;;;;;;4429735;32;20108;-67
2022/06/16 00:15:15;;;;;;;2.05;0.80;;;22.20;56.80;;;;;;4429777;32;20090;-67
2022/06/16 00:17:41;;;;;;;1.15;0.80;;;22.10;56.70;;;;;;4429972;32;20145;-67
2022/06/16 00:20:08;;;;;;;1.55;0.65;;;22.20;56.80;;;;;;4429687;32;20208;-67
2022/06/16 00:22:34;;;;;;;2.38;0.90;;;22.10;56.70;;;;;;4429551;32;20137;-67
2022/06/16 00:25:01;;;;;;;1.20;0.70;;;22.10;56.70;;;;;;4429489;32;20176;-68
2022/06/16 00:27:26;;;;;;;0.90;0.60;;;22.10;56.70;;;;;;4429437;32;20135;-67
2022/06/16 00:29:53;;;;;;;1.70;1.10;;;22.10;56.70;;;;;;4429547;32;20070;-67
2022/06/16 00:32:18;;;;;;;2.13;0.80;;;22.10;56.70;;;;;;4429027;32;20140;-68
2022/06/16 00:34:44;;;;;;;1.67;0.70;;;22.10;56.70;;;;;;4429774;32;20106;-67
2022/06/16 00:37:10;;;;;;;2.72;0.82;;;22.10;56.70;;;;;;4429456;32;20075;-67
2022/06/16 00:39:36;;;;;;;1.88;0.90;;;22.10;56.70;;;;;;4415608;32;20087;-67
2022/06/16 00:42:11;;;;;;;1.85;1.08;;;22.10;56.60;;;;;;4429478;32;20086;-67
2022/06/16 00:44:40;;;;;;;1.00;0.70;;;22.10;56.60;;;;;;4415800;32;20077;-67
2022/06/16 00:47:07;;;;;;;2.70;0.75;;;22.10;56.60;;;;;;4429681;32;20106;-67
2022/06/16 00:49:35;;;;;;;1.85;0.80;;;22.00;56.50;;;;;;4429502;32;20137;-67
2022/06/16 00:52:08;;;;;;;1.70;0.70;;;22.10;56.60;;;;;;4432623;32;20168;-67
2022/06/16 00:54:51;;;;;;;1.63;0.88;;;22.10;56.60;;;;;;4432702;32;20082;-67
2022/06/16 00:57:31;;;;;;;2.08;0.88;;;22.10;56.60;;;;;;4432442;32;20086;-67
2022/06/16 00:59:58;;;;;;;1.52;0.73;;;22.10;56.60;;;;;;4432890;32;20441;-67
2022/06/16 01:02:26;;;;;;;1.23;0.55;;;22.00;56.50;;;;;;4432745;32;20228;-67
2022/06/16 01:04:52;;;;;;;0.80;0.60;;;22.00;56.60;;;;;;4432708;32;20085;-72
2022/06/16 01:07:24;;;;;;;1.08;0.68;;;22.00;56.50;;;;;;4432455;32;20089;-66
2022/06/16 01:09:51;;;;;;;2.88;0.73;;;22.00;56.50;;;;;;4432662;32;20062;-67
2022/06/16 01:15:45;;;;;;;1.15;0.80;;;22.00;56.50;;;;;;4432061;32;20136;-67
2022/06/16 01:18:43;;;;;;;1.25;0.70;;;22.00;56.50;;;;;;4432573;32;20546;-67
2022/06/16 01:21:26;;;;;;;1.73;0.85;;;22.00;56.50;;;;;;4432366;32;20085;-67
2022/06/16 01:24:19;;;;;;;0.93;0.68;;;22.00;56.60;;;;;;4432326;32;20382;-67
2022/06/16 01:27:05;;;;;;;1.20;0.98;;;22.00;56.50;;;;;;4432246;32;20504;-67
2022/06/16 01:29:53;;;;;;;1.58;0.70;;;22.00;56.60;;;;;;4432143;32;20070;-67
2022/06/16 01:32:24;;;;;;;0.82;0.70;;;22.00;56.60;;;;;;4432089;32;20415;-67
2022/06/16 01:35:07;;;;;;;0.80;0.60;;;22.00;56.60;;;;;;4432455;32;20088;-67
2022/06/16 01:37:46;;;;;;;1.38;0.75;;;22.00;56.50;;;;;;4432161;32;20082;-67
2022/06/16 01:40:32;;;;;;;1.25;0.57;;;22.00;56.60;;;;;;4432354;32;20609;-67
2022/06/16 01:43:30;;;;;;;1.42;0.85;;;22.00;56.60;;;;;;4432203;32;20093;-67
2022/06/16 01:46:08;;;;;;;2.28;0.73;;;22.00;57.50;;;;;;4429008;32;20136;-67
2022/06/16 01:48:36;;;;;;;1.35;0.85;;;21.90;56.60;;;;;;4432116;32;20659;-67
2022/06/16 01:51:21;;;;;;;1.77;0.73;;;21.90;56.60;;;;;;4431848;32;20105;-69
2022/06/16 01:54:01;;;;;;;2.00;0.85;;;21.90;56.60;;;;;;4432326;32;20094;-67
2022/06/16 01:56:39;;;;;;;1.77;0.82;;;21.90;56.60;;;;;;4431591;32;20412;-67
2022/06/16 01:59:11;;;;;;;1.70;0.80;;;21.90;56.50;;;;;;4431568;32;20118;-67
2022/06/16 02:01:44;;;;;;;1.15;0.70;;;21.90;56.60;;;;;;4417318;32;20082;-67
2022/06/16 02:04:20;;;;;;;1.30;0.70;;;21.90;56.60;;;;;;4418209;32;20097;-67
2022/06/16 02:06:50;;;;;;;0.70;0.68;;;21.90;56.60;;;;;;4431662;32;20487;-67
2022/06/16 02:09:20;;;;;;;1.25;0.63;;;21.90;56.60;;;;;;4431547;32;20575;-67
2022/06/16 02:11:46;;;;;;;1.20;0.80;;;21.90;56.60;;;;;;4431810;32;20122;-67
2022/06/16 02:14:24;;;;;;;1.50;0.82;;;21.90;56.60;;;;;;4431515;32;20146;-67
2022/06/16 02:16:51;;;;;;;1.30;0.70;;;21.80;56.50;;;;;;4431705;32;20070;-67
2022/06/16 02:19:20;;;;;;;1.25;0.68;;;21.80;56.60;;;;;;4431382;32;20113;-67
2022/06/16 02:21:49;;;;;;;1.23;0.65;;;21.90;56.60;;;;;;4431391;32;20501;-67
2022/06/16 02:24:24;;;;;;;1.23;0.70;;;21.80;56.60;;;;;;4431362;32;20152;-67
2022/06/16 02:26:54;;;;;;;1.35;0.70;;;21.80;56.50;;;;;;4431265;32;20066;-67
2022/06/16 02:29:37;;;;;;;1.17;0.55;;;21.80;56.60;;;;;;4431181;32;20094;-67
2022/06/16 02:32:05;;;;;;;1.10;0.70;;;21.80;56.50;;;;;;4431082;32;20516;-67
2022/06/16 02:34:41;;;;;;;1.05;0.52;;;21.80;56.60;;;;;;4431260;32;20602;-67
2022/06/16 02:37:29;;;;;;;1.30;0.70;;;21.80;56.60;;;;;;4431209;32;20075;-67
2022/06/16 02:40:03;;;;;;;0.68;0.50;;;21.80;56.60;;;;;;4431308;32;20606;-67
2022/06/16 02:42:57;;;;;;;1.70;0.80;;;21.80;56.60;;;;;;4431164;32;20093;-67
2022/06/16 02:45:35;;;;;;;1.58;0.60;;;21.80;56.50;;;;;;4431064;32;20274;-67
2022/06/16 02:48:20;;;;;;;1.70;0.60;;;21.80;56.70;;;;;;4431276;32;20498;-67
2022/06/16 02:50:54;;;;;;;0.77;0.70;;;21.80;56.70;;;;;;4431304;32;20126;-69
2022/06/16 02:56:23;;;;;;;0.88;0.60;;;21.80;56.70;;;;;;4431191;32;20403;-67
2022/06/16 02:58:50;;;;;;;0.80;0.50;;;21.80;56.70;;;;;;4430954;32;20096;-67
2022/06/16 03:01:17;;;;;;;0.68;0.50;;;21.80;56.70;;;;;;4430507;32;20094;-67
2022/06/16 03:04:05;;;;;;;1.20;0.60;;;21.70;56.60;;;;;;4430494;32;20172;-67
2022/06/16 03:06:31;;;;;;;1.25;0.70;;;21.70;56.60;;;;;;4431035;32;20086;-67
2022/06/16 03:08:58;;;;;;;0.75;0.57;;;21.80;56.70;;;;;;4430612;32;20097;-67
2022/06/16 03:11:24;;;;;;;0.80;0.50;;;21.70;56.70;;;;;;4430586;32;20059;-67
2022/06/16 03:13:50;;;;;;;0.85;0.50;;;21.80;56.70;;;;;;4430004;32;20416;-67
2022/06/16 03:16:15;;;;;;;0.75;0.50;;;21.70;56.70;;;;;;4430767;32;20597;-66
2022/06/16 03:18:41;;;;;;;2.58;0.68;;;21.70;56.70;;;;;;4430735;32;20450;-67
2022/06/16 03:21:08;;;;;;;1.77;0.80;;;21.70;56.70;;;;;;4416493;32;20074;-67
2022/06/16 03:23:35;;;;;;;1.83;0.68;;;21.70;56.70;;;;;;4416766;32;20169;-67
2022/06/16 03:26:01;;;;;;;1.20;0.60;;;21.70;56.70;;;;;;4430516;32;20094;-67
2022/06/16 03:28:27;;;;;;;1.10;0.60;;;21.70;56.70;;;;;;4416343;32;20625;-67
2022/06/16 03:30:53;;;;;;;0.88;0.60;;;21.70;56.80;;;;;;4416317;32;20071;-67
2022/06/16 03:33:20;;;;;;;0.47;0.47;;;21.70;56.80;;;;;;4430123;32;20070;-67
2022/06/16 03:35:46;;;;;;;1.58;0.70;;;21.70;56.80;;;;;;4430560;32;20291;-67
2022/06/16 03:40:43;;;;;;;0.90;0.50;;;21.70;56.80;;;;;;4430506;32;20074;-69
2022/06/16 03:43:09;;;;;;;0.68;0.60;;;21.70;56.80;;;;;;4430182;32;20407;-67
2022/06/16 03:45:36;;;;;;;0.68;0.40;;;21.70;56.90;;;;;;4429899;32;20581;-67
2022/06/16 03:48:02;;;;;;;1.25;0.80;;;21.70;56.90;;;;;;4430312;32;20094;-68
2022/06/16 03:50:28;;;;;;;1.65;0.70;;;21.70;56.90;;;;;;4429869;32;20163;-67
2022/06/16 03:52:54;;;;;;;0.77;0.50;;;21.70;56.90;;;;;;4430295;32;20082;-67
2022/06/16 03:55:20;;;;;;;0.60;0.47;;;21.70;56.90;;;;;;4430035;32;20420;-67
2022/06/16 03:57:46;;;;;;;0.98;0.45;;;21.60;56.90;;;;;;4430077;32;20177;-67
2022/06/16 04:00:13;;;;;;;0.88;0.50;;;21.70;56.90;;;;;;4429718;32;20089;-67
2022/06/16 04:02:39;;;;;;;0.95;0.50;;;21.60;56.90;;;;;;4429977;32;20420;-66
2022/06/16 04:05:07;;;;;;;1.00;0.55;;;21.70;56.90;;;;;;4430157;32;20074;-67
2022/06/16 04:07:37;;;;;;;2.28;0.40;;;21.60;56.90;;;;;;4429938;32;20582;-67
2022/06/16 04:10:04;;;;;;;1.48;0.50;;;21.60;56.90;;;;;;4415805;32;20092;-67
2022/06/16 04:12:31;;;;;;;0.77;0.60;;;21.70;57.00;;;;;;4429853;32;20419;-67
2022/06/16 04:14:56;;;;;;;0.50;0.32;;;21.70;57.00;;;;;;4429803;32;20176;-67
2022/06/16 04:17:23;;;;;;;0.70;0.60;;;21.60;57.90;;;;;;4429749;32;20197;-67
2022/06/16 04:22:33;;;;;;;1.55;0.60;;;21.60;57.00;;;;;;4430133;32;20085;-67
2022/06/16 04:24:59;;;;;;;1.25;0.60;;;21.60;57.00;;;;;;4415878;32;20085;-67
2022/06/16 04:27:25;;;;;;;1.10;0.43;;;21.60;57.00;;;;;;4429971;32;20102;-67
2022/06/16 04:29:52;;;;;;;0.77;0.52;;;21.60;57.00;;;;;;4429650;32;20074;-67
2022/06/16 04:32:18;;;;;;;0.95;0.43;;;21.60;57.00;;;;;;4429199;32;20090;-67
2022/06/16 04:34:44;;;;;;;1.00;0.60;;;21.60;57.00;;;;;;4429806;32;20562;-67
2022/06/16 04:37:11;;;;;;;1.00;0.60;;;21.60;57.00;;;;;;4430196;32;20623;-67
2022/06/16 04:39:37;;;;;;;1.83;0.63;;;21.60;57.00;;;;;;4429473;32;20126;-67
2022/06/16 04:42:04;;;;;;;0.70;0.50;;;21.60;57.10;;;;;;4417411;32;20174;-67
2022/06/16 04:44:31;;;;;;;0.52;0.47;;;21.60;57.00;;;;;;4431221;32;20177;-67
2022/06/16 04:46:58;;;;;;;1.20;0.57;;;21.60;57.00;;;;;;4431225;32;20094;-67
2022/06/16 04:49:24;;;;;;;0.80;0.47;;;21.60;57.10;;;;;;4431248;32;20070;-67
2022/06/16 04:51:51;;;;;;;2.00;0.50;;;21.60;57.00;;;;;;4431125;32;20589;-67
2022/06/16 04:54:16;;;;;;;2.63;0.52;;;21.60;57.00;;;;;;4430351;32;20118;-67
2022/06/16 04:56:42;;;;;;;0.70;0.50;;;21.60;57.00;;;;;;4429226;32;20071;-67
2022/06/16 04:59:09;;;;;;;1.05;0.50;;;21.60;57.00;;;;;;4429466;32;20168;-67
2022/06/16 05:01:35;;;;;;;1.15;0.57;;;21.60;57.00;;;;;;4429183;32;20487;-67
2022/06/16 05:04:01;;;;;;;0.45;0.40;;;21.60;57.10;;;;;;4429431;32;20082;-67
2022/06/16 05:06:27;;;;;;;1.35;0.63;;;21.60;57.10;;;;;;4429209;32;20176;-67
2022/06/16 05:08:53;;;;;;;1.10;0.40;;;21.60;57.10;;;;;;4429614;32;20126;-67
2022/06/16 05:11:19;;;;;;;0.50;0.40;;;21.50;57.00;;;;;;4429204;32;20086;-72
2022/06/16 05:13:50;;;;;;;0.95;0.40;;;21.60;57.10;;;;;;4429683;32;20236;-67
2022/06/16 05:16:16;;;;;;;0.60;0.47;;;21.60;57.10;;;;;;4429178;32;20485;-67
2022/06/16 05:18:42;;;;;;;0.65;0.40;;;21.60;57.10;;;;;;4429471;32;20125;-67
2022/06/16 05:21:13;;;;;;;0.55;0.38;;;21.60;57.10;;;;;;4429326;32;20412;-67
2022/06/16 05:23:40;;;;;;;0.77;0.50;;;21.60;57.20;;;;;;4429622;32;20082;-67
2022/06/16 05:26:07;;;;;;;0.90;0.47;;;21.60;57.20;;;;;;4415281;32;20082;-67
2022/06/16 05:28:35;;;;;;;0.77;0.45;;;21.50;57.10;;;;;;4414927;32;20244;-67
2022/06/16 05:31:01;;;;;;;0.88;0.60;;;21.60;57.20;;;;;;4429251;32;20066;-67
2022/06/16 05:33:27;;;;;;;0.40;0.40;;;21.60;57.20;;;;;;4429041;32;20448;-68
2022/06/16 05:36:03;;;;;;;0.70;0.40;;;21.60;57.20;;;;;;4429625;32;20189;-67
2022/06/16 05:38:29;;;;;;;0.45;0.40;;;21.60;57.20;;;;;;4432121;32;20081;-67
2022/06/16 05:41:14;;;;;;;0.57;0.30;;;21.60;57.20;;;;;;4431881;32;20172;-67
2022/06/16 05:43:41;;;;;;;0.50;0.30;;;21.60;57.20;;;;;;4431767;32;20137;-67
2022/06/16 05:46:13;;;;;;;0.60;0.45;;;21.60;57.20;;;;;;4431905;32;20411;-67
2022/06/16 05:48:44;;;;;;;0.43;0.40;;;21.50;58.10;;;;;;4431671;32;20205;-67
2022/06/16 05:51:12;;;;;;;0.52;0.40;;;21.60;57.20;;;;;;4431824;32;20079;-67
2022/06/16 05:53:38;;;;;;;0.68;0.40;;;21.60;57.20;;;;;;4431996;32;20133;-67
2022/06/16 05:56:04;;;;;;;0.40;0.40;;;21.60;57.20;;;;;;4418121;32;20075;-67
2022/06/16 05:58:30;;;;;;;0.40;0.35;;;21.60;57.20;;;;;;4431491;32;20394;-67
2022/06/16 06:00:56;;;;;;;0.57;0.40;;;21.60;57.20;;;;;;4431644;32;20313;-66
2022/06/16 06:03:23;;;;;;;2.03;0.50;;;21.60;57.20;;;;;;4431645;32;20217;-65
2022/06/16 06:05:49;;;;;;;0.90;0.40;;;21.60;57.30;;;;;;4431604;32;20086;-65
2022/06/16 06:16:37;;;;;;;1.80;0.68;;;21.80;57.20;;;;;;4431564;32;20094;-66
2022/06/16 06:22:09;;;;;;;1.00;0.40;;;21.90;57.20;;;;;;4413267;32;20531;-66
2022/06/16 06:24:41;;;;;;;0.82;0.40;;;21.90;57.10;;;;;;4431463;32;20082;-65
2022/06/16 06:27:17;;;;;;;4.20;1.02;;;21.90;57.10;;;;;;4431049;32;20110;-66
2022/06/16 06:29:45;;;;;;;1.92;0.82;;;22.00;57.20;;;;;;4431597;32;20208;-66
2022/06/16 06:32:12;;;;;;;1.73;0.70;;;22.00;57.20;;;;;;4431174;32;20090;-66
2022/06/16 06:34:39;;;;;;;2.10;0.50;;;22.10;57.10;;;;;;4431189;32;20086;-66
2022/06/16 06:37:06;;;;;;;2.35;0.50;;;22.10;57.10;;;;;;4431166;32;20094;-66
2022/06/16 06:39:34;;;;;;;3.22;0.85;;;22.10;57.00;;;;;;4430760;32;20232;-66
2022/06/16 06:42:03;;;;;;;2.08;0.40;;;22.10;56.90;;;;;;4430829;32;20074;-66
2022/06/16 06:44:29;;;;;;;2.25;0.70;;;22.20;57.00;;;;;;4430692;32;20094;-65
2022/06/16 06:46:56;;;;;;;2.65;0.80;;;22.20;57.00;;;;;;4416453;32;20083;-72
2022/06/16 06:49:23;;;;;;;1.20;0.50;;;22.20;56.80;;;;;;4429822;32;20082;-66
2022/06/16 06:51:49;;;;;;;1.17;0.50;;;22.30;56.80;;;;;;4430913;32;20082;-65
2022/06/16 06:54:14;;;;;;;2.15;0.57;;;22.30;56.70;;;;;;4430867;32;20089;-65
2022/06/16 06:56:41;;;;;;;2.28;0.52;;;22.30;56.60;;;;;;4430887;32;20063;-65
2022/06/16 06:59:13;;;;;;;3.55;0.80;;;22.30;56.40;;;;;;4430771;32;20114;-66
2022/06/16 07:01:39;;;;;;;1.48;0.70;;;22.40;56.40;;;;;;4430593;32;20078;-65
2022/06/16 07:04:06;;;;;;;2.88;0.80;;;22.40;56.10;;;;;;4430360;32;20074;-66
2022/06/16 07:06:32;;;;;;;2.35;0.47;;;22.50;55.90;;;;;;4430226;32;20539;-70
2022/06/16 07:08:58;;;;;;;3.53;0.70;;;22.50;55.80;;;;;;4430486;32;20122;-66
2022/06/16 07:11:24;;;;;;;2.58;0.68;;;22.50;55.70;;;;;;4430466;32;20080;-65
2022/06/16 07:13:50;;;;;;;1.00;0.60;;;22.50;55.70;;;;;;4430856;32;20129;-66
2022/06/16 07:16:16;;;;;;;2.70;0.55;;;22.50;55.70;;;;;;4430656;32;20063;-66
2022/06/16 07:18:45;;;;;;;2.25;0.73;;;22.60;55.70;;;;;;4430479;32;20070;-65
2022/06/16 07:21:11;;;;;;;1.88;0.60;;;22.60;55.60;;;;;;4430460;32;20484;-66
2022/06/16 07:23:37;;;;;;;0.93;0.47;;;22.60;55.50;;;;;;4430394;32;20586;-65
2022/06/16 07:26:03;;;;;;;1.33;0.60;;;22.60;55.40;;;;;;4430565;32;20078;-67
2022/06/16 07:28:29;;;;;;;2.33;0.70;;;22.60;55.40;;;;;;4430234;32;20098;-66
2022/06/16 07:30:55;;;;;;;0.98;0.52;;;22.70;55.60;;;;;;4416756;32;20071;-66
2022/06/16 07:33:23;;;;;;;2.00;0.57;;;22.70;55.40;;;;;;4430064;32;20070;-66
2022/06/16 07:35:50;;;;;;;2.13;0.80;;;22.70;55.50;;;;;;4430155;32;20224;-66
2022/06/16 07:38:16;;;;;;;2.20;0.80;;;22.70;55.30;;;;;;4430195;32;20085;-66
2022/06/16 07:40:42;;;;;;;1.65;0.65;;;22.80;55.20;;;;;;4430440;32;20211;-67
2022/06/16 07:43:08;;;;;;;2.47;1.27;;;22.70;55.10;;;;;;4430072;32;20163;-67
2022/06/16 07:45:35;;;;;;;2.47;0.63;;;22.80;55.30;;;;;;4430105;32;20083;-66
2022/06/16 07:48:03;;;;;;;2.83;0.80;;;22.80;55.50;;;;;;4429892;32;20531;-66
2022/06/16 07:50:31;;;;;;;3.50;0.70;;;22.80;55.50;;;;;;4429888;32;20092;-66
2022/06/16 07:52:57;;;;;;;2.58;0.50;;;22.90;55.50;;;;;;4429977;32;20467;-66
2022/06/16 07:55:23;;;;;;;8.15;0.80;;;22.90;55.40;;;;;;4429834;32;20081;-68
2022/06/16 07:57:51;;;;;;;2.35;0.63;;;22.90;55.50;;;;;;4429751;32;20098;-66
2022/06/16 08:00:25;;;;;;;2.20;0.65;;;22.90;55.30;;;;;;4415916;32;20189;-67
2022/06/16 08:02:53;;;;;;;2.15;0.65;;;22.90;54.90;;;;;;4430195;32;20160;-66
2022/06/16 08:05:19;;;;;;;3.05;0.80;;;22.90;54.90;;;;;;4429883;32;20137;-67
2022/06/16 08:07:45;;;;;;;2.47;1.08;;;22.90;55.00;;;;;;4429856;32;20219;-66
2022/06/16 08:10:23;;;;;;;2.65;0.52;;;23.00;54.60;;;;;;4430120;32;20097;-66
2022/06/16 08:12:49;;;;;;;2.10;0.82;;;23.00;54.30;;;;;;4429853;32;20078;-64
2022/06/16 08:15:15;;;;;;;1.95;0.50;;;23.00;54.60;;;;;;4415705;32;20085;-66
2022/06/16 08:17:44;;;;;;;5.22;0.85;;;23.00;54.60;;;;;;4429745;32;20075;-66
2022/06/16 08:20:11;;;;;;;3.25;0.93;;;23.00;54.70;;;;;;4429733;32;20188;-66
2022/06/16 08:22:37;;;;;;;3.85;0.80;;;23.00;54.70;;;;;;4429918;32;20130;-66
2022/06/16 08:25:06;;;;;;;2.83;0.70;;;23.00;54.70;;;;;;4403084;32;20050;-66
2022/06/16 08:27:36;;;;;;;2.53;0.80;;;23.00;54.70;;;;;;4429739;32;20204;-66
2022/06/16 08:30:05;;;;;;;1.70;0.60;;;23.00;54.80;;;;;;4429551;32;20105;-67
2022/06/16 08:32:31;;;;;;;4.57;0.98;;;23.00;54.90;;;;;;4429088;32;20537;-65
2022/06/16 08:34:57;;;;;;;5.20;0.88;;;23.00;54.90;;;;;;4429847;32;20126;-66
2022/06/16 08:37:24;;;;;;;5.30;0.85;;;23.00;55.00;;;;;;4415802;32;20066;-65
2022/06/16 08:39:49;;;;;;;9.05;0.80;;;23.00;55.10;;;;;;4429699;32;20098;-66
2022/06/16 08:42:21;;;;;;;3.40;0.90;;;23.00;55.10;;;;;;4429804;32;20423;-65
2022/06/16 08:45:31;;;;;;;7.47;0.60;;;23.00;55.10;;;;;;4429863;32;20113;-66
2022/06/16 08:48:20;;;;;;;3.88;0.98;;;23.00;55.30;;;;;;4429843;32;20243;-66
2022/06/16 08:51:22;;;;;;;3.03;0.73;;;23.00;55.40;;;;;;4429464;32;20161;-67
2022/06/16 08:54:21;;;;;;;3.67;0.70;;;22.90;55.40;;;;;;4377293;32;20152;-65
2022/06/16 08:56:57;;;;;;;2.20;0.68;;;23.00;54.90;;;;;;4429247;32;20578;-65
2022/06/16 08:59:31;;;;;;;2.97;0.95;;;23.00;54.40;;;;;;4429295;32;20085;-65
2022/06/16 09:02:23;;;;;;;1.65;0.82;;;23.00;54.20;;;;;;4429483;32;20117;-65
2022/06/16 09:04:51;;;;;;;2.72;0.70;;;23.10;53.70;;;;;;4429479;32;20224;-65
2022/06/16 09:07:52;;;;;;;2.53;0.85;;;23.10;53.60;;;;;;4429475;32;20554;-65
2022/06/16 09:10:39;;;;;;;4.32;1.00;;;23.10;53.10;;;;;;4405390;32;20097;-64
2022/06/16 09:13:14;;;;;;;6.10;0.80;;;23.20;53.10;;;;;;4432511;32;20094;-65
2022/06/16 09:16:34;;;;;;;3.75;0.95;;;23.20;53.10;;;;;;4432048;32;20078;-65
2022/06/16 09:19:15;;;;;;;3.28;0.75;;;23.20;52.60;;;;;;4369567;32;20510;-65
2022/06/16 09:21:53;;;;;;;1.42;0.82;;;23.30;52.60;;;;;;4431659;32;20101;-65
2022/06/16 09:24:56;;;;;;;2.28;0.73;;;23.30;52.70;;;;;;4432182;32;20223;-64
2022/06/16 09:27:28;;;;;;;2.58;1.10;;;23.30;52.40;;;;;;4432075;32;20136;-65
2022/06/16 09:30:16;;;;;;;2.58;0.90;;;23.30;52.50;;;;;;4432110;32;20161;-65
2022/06/16 09:33:06;;;;;;;4.63;0.80;;;23.30;52.40;;;;;;4420213;32;20397;-65
2022/06/16 09:35:55;;;;;;;3.40;1.05;;;23.40;52.00;;;;;;4432299;32;20078;-65
2022/06/16 09:38:32;;;;;;;2.17;0.80;;;23.40;52.10;;;;;;4431740;32;20078;-64
2022/06/16 09:44:20;;;;;;;2.67;0.93;;;23.40;51.40;;;;;;4432057;32;20658;-65
2022/06/16 09:46:50;;;;;;;2.70;0.82;;;23.40;51.40;;;;;;4431937;32;20141;-68
2022/06/16 09:49:33;;;;;;;3.00;1.00;;;23.40;51.30;;;;;;4431536;32;20086;-66
2022/06/16 09:52:09;;;;;;;1.35;0.85;;;23.40;51.10;;;;;;4431690;32;20078;-68
2022/06/16 09:54:43;;;;;;;4.45;0.85;;;23.40;51.30;;;;;;4432162;32;20054;-69
2022/06/16 09:57:25;;;;;;;2.25;0.80;;;23.40;51.40;;;;;;4431631;32;20187;-69
2022/06/16 10:00:00;;;;;;;3.95;1.05;;;23.40;51.20;;;;;;4431572;32;20089;-67
2022/06/16 10:02:34;;;;;;;1.88;0.82;;;23.40;51.20;;;;;;4431812;32;20118;-66
2022/06/16 10:05:00;;;;;;;3.80;1.00;;;23.40;51.10;;;;;;4431967;32;20523;-66
2022/06/16 10:07:41;;;;;;;1.10;0.65;;;23.40;51.00;;;;;;4431877;32;20070;-67
2022/06/16 10:10:32;;;;;;;2.63;1.02;;;23.40;50.80;;;;;;4431516;32;20106;-66
2022/06/16 10:13:06;;;;;;;2.13;0.90;;;23.50;50.80;;;;;;4431238;32;20090;-66
2022/06/16 10:15:39;;;;;;;2.08;1.10;;;23.50;50.80;;;;;;4431954;32;20089;-66
2022/06/16 10:18:06;;;;;;;5.93;0.98;;;23.40;50.50;;;;;;4431421;32;20508;-66
2022/06/16 10:20:33;;;;;;;5.18;1.08;;;23.50;50.50;;;;;;4430979;32;20070;-69
2022/06/16 10:23:06;;;;;;;6.47;1.30;;;23.50;50.30;;;;;;4431114;32;20097;-66
2022/06/16 10:25:44;;;;;;;2.40;1.00;;;23.50;50.10;;;;;;4431504;32;20070;-66
2022/06/16 10:28:22;;;;;;;2.58;1.17;;;23.50;50.20;;;;;;4431480;32;20527;-66
2022/06/16 10:30:48;;;;;;;2.58;1.20;;;23.50;50.10;;;;;;4417928;32;20457;-66
2022/06/16 10:33:19;;;;;;;2.17;1.38;;;23.60;50.00;;;;;;4431218;32;20240;-66
2022/06/16 10:35:55;;;;;;;2.40;0.90;;;23.60;49.80;;;;;;4431394;32;20137;-66
2022/06/16 10:38:31;;;;;;;3.53;1.00;;;23.60;49.70;;;;;;4431209;32;20579;-66
2022/06/16 10:41:00;;;;;;;3.03;0.90;;;23.60;49.60;;;;;;4431244;32;20133;-66
2022/06/16 10:43:27;;;;;;;3.75;1.10;;;23.60;49.70;;;;;;4430989;32;20174;-66
2022/06/16 10:46:13;;;;;;;3.15;1.35;;;23.60;49.60;;;;;;4431196;32;20209;-66
2022/06/16 10:48:47;;;;;;;2.05;1.05;;;23.60;49.20;;;;;;4431047;32;20136;-66
2022/06/16 10:51:25;;;;;;;3.78;1.23;;;23.60;49.20;;;;;;4431089;32;20183;-66
2022/06/16 10:54:21;;;;;;;3.65;1.27;;;23.60;49.10;;;;;;4430810;32;20097;-66
2022/06/16 10:56:47;;;;;;;2.92;1.10;;;23.60;49.00;;;;;;4431135;32;20071;-67
2022/06/16 10:59:25;;;;;;;2.25;1.20;;;23.60;49.10;;;;;;4430745;32;20094;-68
2022/06/16 11:01:56;;;;;;;2.05;1.02;;;23.60;48.90;;;;;;4431055;32;20066;-66
2022/06/16 11:04:33;;;;;;;3.08;1.17;;;23.60;49.00;;;;;;4430648;32;20097;-67
2022/06/16 11:07:01;;;;;;;2.67;1.10;;;23.60;48.80;;;;;;4416862;32;20288;-67
2022/06/16 11:09:30;;;;;;;2.05;1.08;;;23.70;48.90;;;;;;4416570;32;20083;-66
2022/06/16 11:12:03;;;;;;;1.67;1.02;;;23.60;48.60;;;;;;4430435;32;20495;-67
2022/06/16 11:14:32;;;;;;;3.15;1.23;;;23.70;48.70;;;;;;4430495;32;20083;-67
2022/06/16 11:16:58;;;;;;;1.65;0.90;;;23.70;48.90;;;;;;4430486;32;20132;-67
2022/06/16 11:19:33;;;;;;;2.00;1.15;;;23.60;49.00;;;;;;4430335;32;20493;-66
2022/06/16 11:22:23;;;;;;;3.05;1.10;;;23.60;49.40;;;;;;4430612;32;20062;-66
2022/06/16 11:24:58;;;;;;;4.07;1.20;;;23.60;49.80;;;;;;4418741;32;20173;-67
2022/06/16 11:27:24;;;;;;;2.45;1.30;;;23.60;50.10;;;;;;4430745;32;20504;-67
2022/06/16 11:29:51;;;;;;;2.58;0.98;;;23.50;50.20;;;;;;4430315;32;20168;-67
2022/06/16 11:32:24;;;;;;;3.53;1.25;;;23.50;50.50;;;;;;4430106;32;20500;-67
2022/06/16 11:34:51;;;;;;;;;;;23.50;50.60;;;;;;4431084;32;20263;-67
2022/06/16 11:37:42;;;;;;;2.22;1.15;;;23.40;50.80;;;;;;4430505;32;20097;-67
2022/06/16 11:40:14;;;;;;;4.13;1.13;;;23.40;51.10;;;;;;4430263;32;20125;-67
2022/06/16 11:43:01;;;;;;;7.22;1.05;;;23.40;51.20;;;;;;4430227;32;20089;-67
2022/06/16 11:45:56;;;;;;;4.53;1.33;;;23.40;51.30;;;;;;4430173;32;20195;-66
2022/06/16 11:48:35;;;;;;;4.90;1.10;;;23.40;51.50;;;;;;4430141;32;20161;-66
2022/06/16 11:51:24;;;;;;;5.07;1.08;;;23.40;51.60;;;;;;4430175;32;20067;-66
2022/06/16 11:54:16;;;;;;;2.35;1.10;;;23.30;51.70;;;;;;4430145;32;20093;-66
2022/06/16 11:56:48;;;;;;;4.93;1.20;;;23.30;51.80;;;;;;4430344;32;20192;-66
2022/06/16 11:59:41;;;;;;;3.22;1.30;;;23.30;51.90;;;;;;4430124;32;20078;-66
2022/06/16 12:02:28;;;;;;;4.35;1.40;;;23.30;52.10;;;;;;4429727;32;20160;-67
2022/06/16 12:05:21;;;;;;;3.13;1.13;;;23.30;52.10;;;;;;4429998;32;20085;-67
2022/06/16 12:08:10;;;;;;;2.50;1.00;;;23.30;52.20;;;;;;4429984;32;20382;-67
2022/06/16 12:11:25;;;;;;;2.47;0.87;;;23.30;52.30;;;;;;4430233;32;20404;-66
2022/06/16 12:14:03;;;;;;;3.08;0.90;;;23.30;53.40;;;;;;4367405;32;20091;-66
2022/06/16 12:16:42;;;;;;;2.10;0.82;;;23.30;52.40;;;;;;4367524;32;20098;-67
2022/06/16 12:19:37;;;;;;;1.38;1.05;;;23.30;52.60;;;;;;4410040;32;20488;-66
2022/06/16 12:22:49;;;;;;;1.45;0.77;;;23.30;52.70;;;;;;4429898;32;20394;-66
2022/06/16 12:25:17;;;;;;;3.75;1.00;;;23.30;52.80;;;;;;4394529;32;20092;-66
2022/06/16 12:28:04;;;;;;;2.33;1.08;;;23.30;52.70;;;;;;4429558;32;20142;-67
2022/06/16 12:30:46;;;;;;;3.33;1.08;;;23.30;52.30;;;;;;4429886;32;20474;-67
2022/06/16 12:33:19;;;;;;;1.70;0.90;;;23.30;51.80;;;;;;4415910;32;20168;-67
2022/06/16 12:35:49;;;;;;;;;;;23.40;51.60;;;;;;4430416;32;20082;-66
2022/06/16 12:38:22;;;;;;;4.38;1.20;;;23.40;51.20;;;;;;4429258;32;19982;-67
2022/06/16 12:40:52;;;;;;;1.45;1.00;;;23.40;51.30;;;;;;4429885;32;20124;-66
2022/06/16 12:43:27;;;;;;;3.17;1.00;;;23.50;51.10;;;;;;4429316;32;20483;-66
2022/06/16 12:46:02;;;;;;;3.22;1.05;;;23.50;51.80;;;;;;4431501;32;20074;-67
2022/06/16 12:48:40;;;;;;;3.05;1.20;;;23.60;50.80;;;;;;4418607;32;20132;-66
2022/06/16 12:51:10;;;;;;;2.17;1.13;;;23.60;50.70;;;;;;4432834;32;20090;-67
2022/06/16 12:53:51;;;;;;;3.47;1.10;;;23.60;50.60;;;;;;4432674;32;20108;-66
2022/06/16 12:56:31;;;;;;;2.38;1.23;;;23.60;50.40;;;;;;4432964;32;20514;-67
2022/06/16 12:59:12;;;;;;;2.20;1.10;;;23.70;50.10;;;;;;4432646;32;20133;-67
2022/06/16 13:01:39;;;;;;;3.38;1.15;;;23.70;50.10;;;;;;4432688;32;20114;-67
2022/06/16 13:04:12;;;;;;;2.15;1.05;;;23.80;50.10;;;;;;4432542;32;20074;-67
2022/06/16 13:06:42;;;;;;;2.15;1.25;;;23.80;49.80;;;;;;4433077;32;20110;-67
2022/06/16 13:09:12;;;;;;;1.77;1.38;;;23.80;49.80;;;;;;4432297;32;20157;-68
2022/06/16 13:12:01;;;;;;;3.63;1.20;;;23.80;49.70;;;;;;4432500;32;20185;-67
2022/06/16 13:14:36;;;;;;;2.88;0.93;;;23.80;49.40;;;;;;4432484;32;20094;-67
2022/06/16 13:17:07;;;;;;;1.92;1.20;;;23.90;49.50;;;;;;4432571;32;20142;-67
2022/06/16 13:19:41;;;;;;;1.50;1.02;;;23.90;49.40;;;;;;4432591;32;20078;-66
2022/06/16 13:22:34;;;;;;;2.25;1.30;;;23.90;49.40;;;;;;4432907;32;20118;-67
2022/06/16 13:25:03;;;;;;;1.88;0.90;;;23.90;49.20;;;;;;4432299;32;20074;-67
2022/06/16 13:27:38;;;;;;;4.32;1.63;;;23.90;49.30;;;;;;4432176;32;20097;-67
2022/06/16 13:30:04;;;;;;;2.47;1.17;;;23.90;49.10;;;;;;4432400;32;20164;-67
2022/06/16 13:33:00;;;;;;;1.33;1.02;;;23.90;49.20;;;;;;4418031;32;20082;-67
2022/06/16 13:35:34;;;;;;;2.42;1.30;;;24.00;49.10;;;;;;4432739;32;20090;-67
2022/06/16 13:38:03;;;;;;;2.25;1.25;;;24.00;49.10;;;;;;4431933;32;20432;-67
2022/06/16 13:40:31;;;;;;;3.00;1.40;;;24.00;49.10;;;;;;4431959;32;20087;-66
2022/06/16 13:43:02;;;;;;;1.45;1.15;;;24.00;49.00;;;;;;4431977;32;20070;-68